<?xml version="1.0" encoding="UTF-8" standalone="no" ?>
<gpx xmlns="http://www.topografix.com/GPX/1/1" xmlns:xsi="http://www.w3.org/2001/XMLSchema-instance" xsi:schemaLocation="http://www.topografix.com/GPX/1/1 http://www.topografix.com/GPX/1/1/gpx.xsd" version="1.1" creator="VisuGPX - https://www.visugpx.com">
  <metadata>
    <name>Mont du lyonnais St Martin</name>
    <desc><![CDATA[Circuits VTT autour de St martin en Haut pour vacances 2019]]></desc>
  </metadata>
  <trk>
    <name><![CDATA[5528832-l'aubepin-larajasse-st-sym]]></name>
    <trkseg>
      <trkpt lat="45.65837" lon="4.55878">
        <ele>706</ele>
        <time>2019-07-29T10:06:24Z</time>
      </trkpt>
      <trkpt lat="45.65884" lon="4.5576">
        <ele>707</ele>
        <time>2019-07-29T10:06:46Z</time>
      </trkpt>
      <trkpt lat="45.65909" lon="4.55767">
        <ele>710</ele>
        <time>2019-07-29T10:06:52Z</time>
      </trkpt>
      <trkpt lat="45.659" lon="4.5573">
        <ele>707</ele>
        <time>2019-07-29T10:06:59Z</time>
      </trkpt>
      <trkpt lat="45.65867" lon="4.55516">
        <ele>693</ele>
        <time>2019-07-29T10:07:34Z</time>
      </trkpt>
      <trkpt lat="45.65863" lon="4.5526">
        <ele>685</ele>
        <time>2019-07-29T10:08:16Z</time>
      </trkpt>
      <trkpt lat="45.6589" lon="4.55149">
        <ele>677</ele>
        <time>2019-07-29T10:08:35Z</time>
      </trkpt>
      <trkpt lat="45.6578" lon="4.55063">
        <ele>671</ele>
        <time>2019-07-29T10:09:05Z</time>
      </trkpt>
      <trkpt lat="45.65857" lon="4.54835">
        <ele>647</ele>
        <time>2019-07-29T10:09:46Z</time>
      </trkpt>
      <trkpt lat="45.65887" lon="4.54874">
        <ele>649</ele>
        <time>2019-07-29T10:09:55Z</time>
      </trkpt>
      <trkpt lat="45.65849" lon="4.54788">
        <ele>643</ele>
        <time>2019-07-29T10:10:12Z</time>
      </trkpt>
      <trkpt lat="45.65834" lon="4.54668">
        <ele>630</ele>
        <time>2019-07-29T10:10:32Z</time>
      </trkpt>
      <trkpt lat="45.65806" lon="4.54513">
        <ele>625</ele>
        <time>2019-07-29T10:10:58Z</time>
      </trkpt>
      <trkpt lat="45.65819" lon="4.54428">
        <ele>625</ele>
        <time>2019-07-29T10:11:12Z</time>
      </trkpt>
      <trkpt lat="45.65857" lon="4.54277">
        <ele>636</ele>
        <time>2019-07-29T10:11:38Z</time>
      </trkpt>
      <trkpt lat="45.65824" lon="4.54014">
        <ele>659</ele>
        <time>2019-07-29T10:12:22Z</time>
      </trkpt>
      <trkpt lat="45.6583" lon="4.53814">
        <ele>667</ele>
        <time>2019-07-29T10:12:55Z</time>
      </trkpt>
      <trkpt lat="45.65825" lon="4.53584">
        <ele>678</ele>
        <time>2019-07-29T10:13:32Z</time>
      </trkpt>
      <trkpt lat="45.65714" lon="4.53475">
        <ele>688</ele>
        <time>2019-07-29T10:14:04Z</time>
      </trkpt>
      <trkpt lat="45.65627" lon="4.53374">
        <ele>683</ele>
        <time>2019-07-29T10:14:30Z</time>
      </trkpt>
      <trkpt lat="45.65584" lon="4.53196">
        <ele>677</ele>
        <time>2019-07-29T10:15:01Z</time>
      </trkpt>
      <trkpt lat="45.65516" lon="4.53099">
        <ele>672</ele>
        <time>2019-07-29T10:15:23Z</time>
      </trkpt>
      <trkpt lat="45.65442" lon="4.5303">
        <ele>676</ele>
        <time>2019-07-29T10:15:44Z</time>
      </trkpt>
      <trkpt lat="45.65353" lon="4.52914">
        <ele>686</ele>
        <time>2019-07-29T10:16:12Z</time>
      </trkpt>
      <trkpt lat="45.65278" lon="4.52815">
        <ele>693</ele>
        <time>2019-07-29T10:16:36Z</time>
      </trkpt>
      <trkpt lat="45.65119" lon="4.52802">
        <ele>687</ele>
        <time>2019-07-29T10:17:13Z</time>
      </trkpt>
      <trkpt lat="45.64969" lon="4.52648">
        <ele>694</ele>
        <time>2019-07-29T10:17:56Z</time>
      </trkpt>
      <trkpt lat="45.64763" lon="4.52009">
        <ele>701</ele>
        <time>2019-07-29T10:19:51Z</time>
      </trkpt>
      <trkpt lat="45.64744" lon="4.51853">
        <ele>693</ele>
        <time>2019-07-29T10:20:17Z</time>
      </trkpt>
      <trkpt lat="45.64804" lon="4.51645">
        <ele>675</ele>
        <time>2019-07-29T10:20:53Z</time>
      </trkpt>
      <trkpt lat="45.64838" lon="4.51471">
        <ele>658</ele>
        <time>2019-07-29T10:21:23Z</time>
      </trkpt>
      <trkpt lat="45.64978" lon="4.51421">
        <ele>661</ele>
        <time>2019-07-29T10:21:57Z</time>
      </trkpt>
      <trkpt lat="45.65026" lon="4.51314">
        <ele>662</ele>
        <time>2019-07-29T10:22:17Z</time>
      </trkpt>
      <trkpt lat="45.65273" lon="4.51042">
        <ele>661</ele>
        <time>2019-07-29T10:23:30Z</time>
      </trkpt>
      <trkpt lat="45.65236" lon="4.50997">
        <ele>662</ele>
        <time>2019-07-29T10:23:41Z</time>
      </trkpt>
      <trkpt lat="45.65153" lon="4.51074">
        <ele>662</ele>
        <time>2019-07-29T10:24:05Z</time>
      </trkpt>
      <trkpt lat="45.65032" lon="4.51091">
        <ele>665</ele>
        <time>2019-07-29T10:24:33Z</time>
      </trkpt>
      <trkpt lat="45.64922" lon="4.50984">
        <ele>678</ele>
        <time>2019-07-29T10:25:04Z</time>
      </trkpt>
      <trkpt lat="45.64783" lon="4.50964">
        <ele>689</ele>
        <time>2019-07-29T10:25:37Z</time>
      </trkpt>
      <trkpt lat="45.64723" lon="4.50904">
        <ele>692</ele>
        <time>2019-07-29T10:25:54Z</time>
      </trkpt>
      <trkpt lat="45.64691" lon="4.50782">
        <ele>691</ele>
        <time>2019-07-29T10:26:15Z</time>
      </trkpt>
      <trkpt lat="45.64706" lon="4.50675">
        <ele>695</ele>
        <time>2019-07-29T10:26:33Z</time>
      </trkpt>
      <trkpt lat="45.64669" lon="4.50585">
        <ele>692</ele>
        <time>2019-07-29T10:26:50Z</time>
      </trkpt>
      <trkpt lat="45.64543" lon="4.50452">
        <ele>695</ele>
        <time>2019-07-29T10:27:26Z</time>
      </trkpt>
      <trkpt lat="45.64454" lon="4.50117">
        <ele>696</ele>
        <time>2019-07-29T10:28:25Z</time>
      </trkpt>
      <trkpt lat="45.64351" lon="4.49941">
        <ele>697</ele>
        <time>2019-07-29T10:29:02Z</time>
      </trkpt>
      <trkpt lat="45.64297" lon="4.49827">
        <ele>691</ele>
        <time>2019-07-29T10:29:25Z</time>
      </trkpt>
      <trkpt lat="45.6428" lon="4.49716">
        <ele>691</ele>
        <time>2019-07-29T10:29:43Z</time>
      </trkpt>
      <trkpt lat="45.64328" lon="4.49447">
        <ele>685</ele>
        <time>2019-07-29T10:30:29Z</time>
      </trkpt>
      <trkpt lat="45.64247" lon="4.49078">
        <ele>668</ele>
        <time>2019-07-29T10:31:32Z</time>
      </trkpt>
      <trkpt lat="45.64193" lon="4.48645">
        <ele>656</ele>
        <time>2019-07-29T10:32:44Z</time>
      </trkpt>
      <trkpt lat="45.64202" lon="4.48351">
        <ele>639</ele>
        <time>2019-07-29T10:33:32Z</time>
      </trkpt>
      <trkpt lat="45.64145" lon="4.48263">
        <ele>633</ele>
        <time>2019-07-29T10:33:51Z</time>
      </trkpt>
      <trkpt lat="45.64079" lon="4.48048">
        <ele>615</ele>
        <time>2019-07-29T10:34:30Z</time>
      </trkpt>
      <trkpt lat="45.63988" lon="4.47651">
        <ele>610</ele>
        <time>2019-07-29T10:35:38Z</time>
      </trkpt>
      <trkpt lat="45.63781" lon="4.47621">
        <ele>601</ele>
        <time>2019-07-29T10:36:26Z</time>
      </trkpt>
      <trkpt lat="45.63635" lon="4.47475">
        <ele>600</ele>
        <time>2019-07-29T10:37:08Z</time>
      </trkpt>
      <trkpt lat="45.6341" lon="4.47353">
        <ele>600</ele>
        <time>2019-07-29T10:38:04Z</time>
      </trkpt>
      <trkpt lat="45.63501" lon="4.46767">
        <ele>564</ele>
        <time>2019-07-29T10:39:42Z</time>
      </trkpt>
      <trkpt lat="45.63086" lon="4.47033">
        <ele>575</ele>
        <time>2019-07-29T10:41:28Z</time>
      </trkpt>
      <trkpt lat="45.6297" lon="4.47005">
        <ele>563</ele>
        <time>2019-07-29T10:41:56Z</time>
      </trkpt>
      <trkpt lat="45.62913" lon="4.47205">
        <ele>562</ele>
        <time>2019-07-29T10:42:31Z</time>
      </trkpt>
      <trkpt lat="45.62937" lon="4.47319">
        <ele>554</ele>
        <time>2019-07-29T10:42:51Z</time>
      </trkpt>
      <trkpt lat="45.62867" lon="4.47454">
        <ele>554</ele>
        <time>2019-07-29T10:43:18Z</time>
      </trkpt>
      <trkpt lat="45.62856" lon="4.47675">
        <ele>569</ele>
        <time>2019-07-29T10:43:54Z</time>
      </trkpt>
      <trkpt lat="45.6284" lon="4.47864">
        <ele>575</ele>
        <time>2019-07-29T10:44:25Z</time>
      </trkpt>
      <trkpt lat="45.62951" lon="4.47999">
        <ele>587</ele>
        <time>2019-07-29T10:44:59Z</time>
      </trkpt>
      <trkpt lat="45.62934" lon="4.48173">
        <ele>591</ele>
        <time>2019-07-29T10:45:28Z</time>
      </trkpt>
      <trkpt lat="45.62966" lon="4.48244">
        <ele>594</ele>
        <time>2019-07-29T10:45:42Z</time>
      </trkpt>
      <trkpt lat="45.6297" lon="4.48319">
        <ele>598</ele>
        <time>2019-07-29T10:45:54Z</time>
      </trkpt>
      <trkpt lat="45.62784" lon="4.48151">
        <ele>585</ele>
        <time>2019-07-29T10:46:46Z</time>
      </trkpt>
      <trkpt lat="45.62706" lon="4.48168">
        <ele>574</ele>
        <time>2019-07-29T10:47:04Z</time>
      </trkpt>
      <trkpt lat="45.62712" lon="4.48248">
        <ele>576</ele>
        <time>2019-07-29T10:47:17Z</time>
      </trkpt>
      <trkpt lat="45.62567" lon="4.48542">
        <ele>583</ele>
        <time>2019-07-29T10:48:16Z</time>
      </trkpt>
      <trkpt lat="45.62472" lon="4.48784">
        <ele>590</ele>
        <time>2019-07-29T10:49:01Z</time>
      </trkpt>
      <trkpt lat="45.62609" lon="4.4919">
        <ele>605</ele>
        <time>2019-07-29T10:50:15Z</time>
      </trkpt>
      <trkpt lat="45.62634" lon="4.49327">
        <ele>594</ele>
        <time>2019-07-29T10:50:38Z</time>
      </trkpt>
      <trkpt lat="45.62517" lon="4.49409">
        <ele>577</ele>
        <time>2019-07-29T10:51:08Z</time>
      </trkpt>
      <trkpt lat="45.62417" lon="4.4931">
        <ele>563</ele>
        <time>2019-07-29T10:51:37Z</time>
      </trkpt>
      <trkpt lat="45.6239" lon="4.49462">
        <ele>554</ele>
        <time>2019-07-29T10:52:02Z</time>
      </trkpt>
      <trkpt lat="45.62355" lon="4.49372">
        <ele>549</ele>
        <time>2019-07-29T10:52:19Z</time>
      </trkpt>
      <trkpt lat="45.62316" lon="4.49306">
        <ele>546</ele>
        <time>2019-07-29T10:52:33Z</time>
      </trkpt>
      <trkpt lat="45.62285" lon="4.49325">
        <ele>551</ele>
        <time>2019-07-29T10:52:41Z</time>
      </trkpt>
      <trkpt lat="45.62193" lon="4.49209">
        <ele>552</ele>
        <time>2019-07-29T10:53:10Z</time>
      </trkpt>
      <trkpt lat="45.62221" lon="4.49419">
        <ele>564</ele>
        <time>2019-07-29T10:53:45Z</time>
      </trkpt>
      <trkpt lat="45.62143" lon="4.49505">
        <ele>578</ele>
        <time>2019-07-29T10:54:08Z</time>
      </trkpt>
      <trkpt lat="45.62163" lon="4.49662">
        <ele>577</ele>
        <time>2019-07-29T10:54:34Z</time>
      </trkpt>
      <trkpt lat="45.6207" lon="4.49823">
        <ele>608</ele>
        <time>2019-07-29T10:55:08Z</time>
      </trkpt>
      <trkpt lat="45.62052" lon="4.49973">
        <ele>605</ele>
        <time>2019-07-29T10:55:33Z</time>
      </trkpt>
      <trkpt lat="45.61902" lon="4.50082">
        <ele>620</ele>
        <time>2019-07-29T10:56:12Z</time>
      </trkpt>
      <trkpt lat="45.61986" lon="4.50389">
        <ele>635</ele>
        <time>2019-07-29T10:57:06Z</time>
      </trkpt>
      <trkpt lat="45.61959" lon="4.5049">
        <ele>641</ele>
        <time>2019-07-29T10:57:24Z</time>
      </trkpt>
      <trkpt lat="45.61776" lon="4.5034">
        <ele>662</ele>
        <time>2019-07-29T10:58:13Z</time>
      </trkpt>
      <trkpt lat="45.61689" lon="4.50224">
        <ele>680</ele>
        <time>2019-07-29T10:58:41Z</time>
      </trkpt>
      <trkpt lat="45.61455" lon="4.50077">
        <ele>700</ele>
        <time>2019-07-29T10:59:40Z</time>
      </trkpt>
      <trkpt lat="45.61407" lon="4.50026">
        <ele>698</ele>
        <time>2019-07-29T10:59:54Z</time>
      </trkpt>
      <trkpt lat="45.61286" lon="4.50069">
        <ele>696</ele>
        <time>2019-07-29T11:00:23Z</time>
      </trkpt>
      <trkpt lat="45.61151" lon="4.49923">
        <ele>686</ele>
        <time>2019-07-29T11:01:03Z</time>
      </trkpt>
      <trkpt lat="45.60809" lon="4.49605">
        <ele>640</ele>
        <time>2019-07-29T11:02:38Z</time>
      </trkpt>
      <trkpt lat="45.60755" lon="4.49614">
        <ele>642</ele>
        <time>2019-07-29T11:02:51Z</time>
      </trkpt>
      <trkpt lat="45.60719" lon="4.49545">
        <ele>648</ele>
        <time>2019-07-29T11:03:05Z</time>
      </trkpt>
      <trkpt lat="45.60563" lon="4.49609">
        <ele>681</ele>
        <time>2019-07-29T11:03:43Z</time>
      </trkpt>
      <trkpt lat="45.60491" lon="4.49511">
        <ele>704</ele>
        <time>2019-07-29T11:04:06Z</time>
      </trkpt>
      <trkpt lat="45.60134" lon="4.4927">
        <ele>738</ele>
        <time>2019-07-29T11:05:38Z</time>
      </trkpt>
      <trkpt lat="45.59866" lon="4.49034">
        <ele>783</ele>
        <time>2019-07-29T11:06:52Z</time>
      </trkpt>
      <trkpt lat="45.59782" lon="4.4903">
        <ele>787</ele>
        <time>2019-07-29T11:07:11Z</time>
      </trkpt>
      <trkpt lat="45.59761" lon="4.49202">
        <ele>801</ele>
        <time>2019-07-29T11:07:40Z</time>
      </trkpt>
      <trkpt lat="45.59563" lon="4.49515">
        <ele>835</ele>
        <time>2019-07-29T11:08:49Z</time>
      </trkpt>
      <trkpt lat="45.59524" lon="4.49858">
        <ele>822</ele>
        <time>2019-07-29T11:09:46Z</time>
      </trkpt>
      <trkpt lat="45.59452" lon="4.49841">
        <ele>827</ele>
        <time>2019-07-29T11:10:03Z</time>
      </trkpt>
      <trkpt lat="45.5908" lon="4.5009">
        <ele>875</ele>
        <time>2019-07-29T11:11:39Z</time>
      </trkpt>
      <trkpt lat="45.58842" lon="4.50425">
        <ele>899</ele>
        <time>2019-07-29T11:12:57Z</time>
      </trkpt>
      <trkpt lat="45.58744" lon="4.50487">
        <ele>901</ele>
        <time>2019-07-29T11:13:22Z</time>
      </trkpt>
      <trkpt lat="45.58631" lon="4.50476">
        <ele>908</ele>
        <time>2019-07-29T11:13:48Z</time>
      </trkpt>
      <trkpt lat="45.58507" lon="4.5051">
        <ele>924</ele>
        <time>2019-07-29T11:14:18Z</time>
      </trkpt>
      <trkpt lat="45.58172" lon="4.50533">
        <ele>911</ele>
        <time>2019-07-29T11:15:36Z</time>
      </trkpt>
      <trkpt lat="45.58062" lon="4.50492">
        <ele>901</ele>
        <time>2019-07-29T11:16:03Z</time>
      </trkpt>
      <trkpt lat="45.58055" lon="4.505">
        <ele>899</ele>
        <time>2019-07-29T11:16:05Z</time>
      </trkpt>
      <trkpt lat="45.57946" lon="4.5059">
        <ele>887</ele>
        <time>2019-07-29T11:16:34Z</time>
      </trkpt>
      <trkpt lat="45.57749" lon="4.50698">
        <ele>878</ele>
        <time>2019-07-29T11:17:23Z</time>
      </trkpt>
      <trkpt lat="45.57587" lon="4.50792">
        <ele>885</ele>
        <time>2019-07-29T11:18:04Z</time>
      </trkpt>
      <trkpt lat="45.57317" lon="4.50897">
        <ele>877</ele>
        <time>2019-07-29T11:19:09Z</time>
      </trkpt>
      <trkpt lat="45.57201" lon="4.50943">
        <ele>868</ele>
        <time>2019-07-29T11:19:38Z</time>
      </trkpt>
      <trkpt lat="45.57145" lon="4.50976">
        <ele>864</ele>
        <time>2019-07-29T11:19:52Z</time>
      </trkpt>
      <trkpt lat="45.57092" lon="4.51063">
        <ele>859</ele>
        <time>2019-07-29T11:20:11Z</time>
      </trkpt>
      <trkpt lat="45.57097" lon="4.51211">
        <ele>862</ele>
        <time>2019-07-29T11:20:35Z</time>
      </trkpt>
      <trkpt lat="45.57064" lon="4.5138">
        <ele>862</ele>
        <time>2019-07-29T11:21:04Z</time>
      </trkpt>
      <trkpt lat="45.57019" lon="4.51402">
        <ele>862</ele>
        <time>2019-07-29T11:21:15Z</time>
      </trkpt>
      <trkpt lat="45.56979" lon="4.51712">
        <ele>863</ele>
        <time>2019-07-29T11:22:06Z</time>
      </trkpt>
      <trkpt lat="45.57014" lon="4.5186">
        <ele>880</ele>
        <time>2019-07-29T11:22:32Z</time>
      </trkpt>
      <trkpt lat="45.57009" lon="4.51921">
        <ele>885</ele>
        <time>2019-07-29T11:22:42Z</time>
      </trkpt>
      <trkpt lat="45.56986" lon="4.51994">
        <ele>885</ele>
        <time>2019-07-29T11:22:55Z</time>
      </trkpt>
      <trkpt lat="45.57004" lon="4.52344">
        <ele>880</ele>
        <time>2019-07-29T11:23:52Z</time>
      </trkpt>
      <trkpt lat="45.5707" lon="4.52434">
        <ele>869</ele>
        <time>2019-07-29T11:24:14Z</time>
      </trkpt>
      <trkpt lat="45.57075" lon="4.52481">
        <ele>868</ele>
        <time>2019-07-29T11:24:21Z</time>
      </trkpt>
      <trkpt lat="45.5716" lon="4.52607">
        <ele>873</ele>
        <time>2019-07-29T11:24:50Z</time>
      </trkpt>
      <trkpt lat="45.57188" lon="4.52741">
        <ele>871</ele>
        <time>2019-07-29T11:25:13Z</time>
      </trkpt>
      <trkpt lat="45.57267" lon="4.52874">
        <ele>875</ele>
        <time>2019-07-29T11:25:41Z</time>
      </trkpt>
      <trkpt lat="45.57292" lon="4.53257">
        <ele>872</ele>
        <time>2019-07-29T11:26:44Z</time>
      </trkpt>
      <trkpt lat="45.57264" lon="4.53369">
        <ele>869</ele>
        <time>2019-07-29T11:27:04Z</time>
      </trkpt>
      <trkpt lat="45.57332" lon="4.53563">
        <ele>867</ele>
        <time>2019-07-29T11:27:39Z</time>
      </trkpt>
      <trkpt lat="45.57368" lon="4.53679">
        <ele>866</ele>
        <time>2019-07-29T11:28:00Z</time>
      </trkpt>
      <trkpt lat="45.57466" lon="4.53784">
        <ele>862</ele>
        <time>2019-07-29T11:28:28Z</time>
      </trkpt>
      <trkpt lat="45.57562" lon="4.53989">
        <ele>854</ele>
        <time>2019-07-29T11:29:09Z</time>
      </trkpt>
      <trkpt lat="45.5759" lon="4.54126">
        <ele>854</ele>
        <time>2019-07-29T11:29:32Z</time>
      </trkpt>
      <trkpt lat="45.57628" lon="4.5418">
        <ele>853</ele>
        <time>2019-07-29T11:29:45Z</time>
      </trkpt>
      <trkpt lat="45.57822" lon="4.54383">
        <ele>848</ele>
        <time>2019-07-29T11:30:41Z</time>
      </trkpt>
      <trkpt lat="45.5789" lon="4.5448">
        <ele>841</ele>
        <time>2019-07-29T11:31:03Z</time>
      </trkpt>
      <trkpt lat="45.57916" lon="4.54599">
        <ele>840</ele>
        <time>2019-07-29T11:31:24Z</time>
      </trkpt>
      <trkpt lat="45.57888" lon="4.5496">
        <ele>824</ele>
        <time>2019-07-29T11:32:23Z</time>
      </trkpt>
      <trkpt lat="45.57855" lon="4.55133">
        <ele>818</ele>
        <time>2019-07-29T11:32:52Z</time>
      </trkpt>
      <trkpt lat="45.57848" lon="4.55249">
        <ele>812</ele>
        <time>2019-07-29T11:33:11Z</time>
      </trkpt>
      <trkpt lat="45.57863" lon="4.55368">
        <ele>806</ele>
        <time>2019-07-29T11:33:31Z</time>
      </trkpt>
      <trkpt lat="45.57896" lon="4.55426">
        <ele>805</ele>
        <time>2019-07-29T11:33:43Z</time>
      </trkpt>
      <trkpt lat="45.57916" lon="4.55523">
        <ele>807</ele>
        <time>2019-07-29T11:34:00Z</time>
      </trkpt>
      <trkpt lat="45.57974" lon="4.55794">
        <ele>808</ele>
        <time>2019-07-29T11:34:46Z</time>
      </trkpt>
      <trkpt lat="45.58037" lon="4.56043">
        <ele>819</ele>
        <time>2019-07-29T11:35:29Z</time>
      </trkpt>
      <trkpt lat="45.58027" lon="4.561">
        <ele>821</ele>
        <time>2019-07-29T11:35:39Z</time>
      </trkpt>
      <trkpt lat="45.58047" lon="4.56187">
        <ele>826</ele>
        <time>2019-07-29T11:35:54Z</time>
      </trkpt>
      <trkpt lat="45.58118" lon="4.56389">
        <ele>827</ele>
        <time>2019-07-29T11:36:31Z</time>
      </trkpt>
      <trkpt lat="45.58161" lon="4.564">
        <ele>827</ele>
        <time>2019-07-29T11:36:41Z</time>
      </trkpt>
      <trkpt lat="45.58211" lon="4.56465">
        <ele>822</ele>
        <time>2019-07-29T11:36:57Z</time>
      </trkpt>
      <trkpt lat="45.58224" lon="4.56523">
        <ele>820</ele>
        <time>2019-07-29T11:37:07Z</time>
      </trkpt>
      <trkpt lat="45.58311" lon="4.56656">
        <ele>810</ele>
        <time>2019-07-29T11:37:37Z</time>
      </trkpt>
      <trkpt lat="45.58371" lon="4.56751">
        <ele>801</ele>
        <time>2019-07-29T11:37:57Z</time>
      </trkpt>
      <trkpt lat="45.58364" lon="4.5683">
        <ele>796</ele>
        <time>2019-07-29T11:38:10Z</time>
      </trkpt>
      <trkpt lat="45.58449" lon="4.56927">
        <ele>802</ele>
        <time>2019-07-29T11:38:36Z</time>
      </trkpt>
      <trkpt lat="45.58563" lon="4.5699">
        <ele>816</ele>
        <time>2019-07-29T11:39:04Z</time>
      </trkpt>
      <trkpt lat="45.58598" lon="4.57068">
        <ele>819</ele>
        <time>2019-07-29T11:39:20Z</time>
      </trkpt>
      <trkpt lat="45.58643" lon="4.57149">
        <ele>816</ele>
        <time>2019-07-29T11:39:36Z</time>
      </trkpt>
      <trkpt lat="45.58698" lon="4.57235">
        <ele>812</ele>
        <time>2019-07-29T11:39:56Z</time>
      </trkpt>
      <trkpt lat="45.58784" lon="4.57269">
        <ele>810</ele>
        <time>2019-07-29T11:40:16Z</time>
      </trkpt>
      <trkpt lat="45.58877" lon="4.5728">
        <ele>798</ele>
        <time>2019-07-29T11:40:38Z</time>
      </trkpt>
      <trkpt lat="45.58943" lon="4.57282">
        <ele>790</ele>
        <time>2019-07-29T11:40:54Z</time>
      </trkpt>
      <trkpt lat="45.59131" lon="4.57166">
        <ele>759</ele>
        <time>2019-07-29T11:41:41Z</time>
      </trkpt>
      <trkpt lat="45.59174" lon="4.57211">
        <ele>755</ele>
        <time>2019-07-29T11:41:54Z</time>
      </trkpt>
      <trkpt lat="45.59292" lon="4.57164">
        <ele>740</ele>
        <time>2019-07-29T11:42:22Z</time>
      </trkpt>
      <trkpt lat="45.59358" lon="4.57008">
        <ele>726</ele>
        <time>2019-07-29T11:42:52Z</time>
      </trkpt>
      <trkpt lat="45.59407" lon="4.57061">
        <ele>721</ele>
        <time>2019-07-29T11:43:07Z</time>
      </trkpt>
      <trkpt lat="45.59415" lon="4.57113">
        <ele>719</ele>
        <time>2019-07-29T11:43:15Z</time>
      </trkpt>
      <trkpt lat="45.59479" lon="4.57083">
        <ele>708</ele>
        <time>2019-07-29T11:43:31Z</time>
      </trkpt>
      <trkpt lat="45.59685" lon="4.57108">
        <ele>694</ele>
        <time>2019-07-29T11:44:19Z</time>
      </trkpt>
      <trkpt lat="45.59785" lon="4.57119">
        <ele>691</ele>
        <time>2019-07-29T11:44:43Z</time>
      </trkpt>
      <trkpt lat="45.59862" lon="4.57076">
        <ele>695</ele>
        <time>2019-07-29T11:45:02Z</time>
      </trkpt>
      <trkpt lat="45.59937" lon="4.57108">
        <ele>695</ele>
        <time>2019-07-29T11:45:20Z</time>
      </trkpt>
      <trkpt lat="45.59966" lon="4.57235">
        <ele>691</ele>
        <time>2019-07-29T11:45:42Z</time>
      </trkpt>
      <trkpt lat="45.59979" lon="4.57306">
        <ele>691</ele>
        <time>2019-07-29T11:45:54Z</time>
      </trkpt>
      <trkpt lat="45.59996" lon="4.57392">
        <ele>693</ele>
        <time>2019-07-29T11:46:09Z</time>
      </trkpt>
      <trkpt lat="45.60024" lon="4.57585">
        <ele>685</ele>
        <time>2019-07-29T11:46:41Z</time>
      </trkpt>
      <trkpt lat="45.60092" lon="4.57701">
        <ele>691</ele>
        <time>2019-07-29T11:47:06Z</time>
      </trkpt>
      <trkpt lat="45.60105" lon="4.57793">
        <ele>692</ele>
        <time>2019-07-29T11:47:21Z</time>
      </trkpt>
      <trkpt lat="45.60072" lon="4.57955">
        <ele>697</ele>
        <time>2019-07-29T11:47:49Z</time>
      </trkpt>
      <trkpt lat="45.60082" lon="4.58063">
        <ele>702</ele>
        <time>2019-07-29T11:48:06Z</time>
      </trkpt>
      <trkpt lat="45.60089" lon="4.58172">
        <ele>706</ele>
        <time>2019-07-29T11:48:24Z</time>
      </trkpt>
      <trkpt lat="45.60115" lon="4.58315">
        <ele>710</ele>
        <time>2019-07-29T11:48:48Z</time>
      </trkpt>
      <trkpt lat="45.60165" lon="4.58015">
        <ele>738</ele>
        <time>2019-07-29T11:49:39Z</time>
      </trkpt>
      <trkpt lat="45.60203" lon="4.57992">
        <ele>745</ele>
        <time>2019-07-29T11:49:48Z</time>
      </trkpt>
      <trkpt lat="45.6023" lon="4.57934">
        <ele>748</ele>
        <time>2019-07-29T11:50:00Z</time>
      </trkpt>
      <trkpt lat="45.60245" lon="4.57784">
        <ele>751</ele>
        <time>2019-07-29T11:50:25Z</time>
      </trkpt>
      <trkpt lat="45.60308" lon="4.57943">
        <ele>761</ele>
        <time>2019-07-29T11:50:54Z</time>
      </trkpt>
      <trkpt lat="45.60357" lon="4.58126">
        <ele>766</ele>
        <time>2019-07-29T11:51:26Z</time>
      </trkpt>
      <trkpt lat="45.60385" lon="4.58272">
        <ele>764</ele>
        <time>2019-07-29T11:51:51Z</time>
      </trkpt>
      <trkpt lat="45.60424" lon="4.58344">
        <ele>768</ele>
        <time>2019-07-29T11:52:06Z</time>
      </trkpt>
      <trkpt lat="45.60472" lon="4.58469">
        <ele>771</ele>
        <time>2019-07-29T11:52:29Z</time>
      </trkpt>
      <trkpt lat="45.60524" lon="4.58645">
        <ele>773</ele>
        <time>2019-07-29T11:53:01Z</time>
      </trkpt>
      <trkpt lat="45.60614" lon="4.58739">
        <ele>779</ele>
        <time>2019-07-29T11:53:27Z</time>
      </trkpt>
      <trkpt lat="45.60649" lon="4.58776">
        <ele>779</ele>
        <time>2019-07-29T11:53:37Z</time>
      </trkpt>
      <trkpt lat="45.60697" lon="4.58898">
        <ele>771</ele>
        <time>2019-07-29T11:54:00Z</time>
      </trkpt>
      <trkpt lat="45.60781" lon="4.5898">
        <ele>766</ele>
        <time>2019-07-29T11:54:23Z</time>
      </trkpt>
      <trkpt lat="45.6085" lon="4.59023">
        <ele>768</ele>
        <time>2019-07-29T11:54:41Z</time>
      </trkpt>
      <trkpt lat="45.60887" lon="4.59014">
        <ele>772</ele>
        <time>2019-07-29T11:54:50Z</time>
      </trkpt>
      <trkpt lat="45.61047" lon="4.59063">
        <ele>791</ele>
        <time>2019-07-29T11:55:28Z</time>
      </trkpt>
      <trkpt lat="45.61125" lon="4.59128">
        <ele>804</ele>
        <time>2019-07-29T11:55:49Z</time>
      </trkpt>
      <trkpt lat="45.61236" lon="4.59246">
        <ele>826</ele>
        <time>2019-07-29T11:56:21Z</time>
      </trkpt>
      <trkpt lat="45.6127" lon="4.5925">
        <ele>832</ele>
        <time>2019-07-29T11:56:29Z</time>
      </trkpt>
      <trkpt lat="45.6142" lon="4.59301">
        <ele>845</ele>
        <time>2019-07-29T11:57:05Z</time>
      </trkpt>
      <trkpt lat="45.61743" lon="4.59354">
        <ele>857</ele>
        <time>2019-07-29T11:58:21Z</time>
      </trkpt>
      <trkpt lat="45.61891" lon="4.59339">
        <ele>861</ele>
        <time>2019-07-29T11:58:56Z</time>
      </trkpt>
      <trkpt lat="45.6199" lon="4.59227">
        <ele>863</ele>
        <time>2019-07-29T11:59:25Z</time>
      </trkpt>
      <trkpt lat="45.62041" lon="4.59102">
        <ele>860</ele>
        <time>2019-07-29T11:59:49Z</time>
      </trkpt>
      <trkpt lat="45.62109" lon="4.58938">
        <ele>849</ele>
        <time>2019-07-29T12:00:20Z</time>
      </trkpt>
      <trkpt lat="45.62202" lon="4.58796">
        <ele>842</ele>
        <time>2019-07-29T12:00:52Z</time>
      </trkpt>
      <trkpt lat="45.62259" lon="4.5879">
        <ele>841</ele>
        <time>2019-07-29T12:01:05Z</time>
      </trkpt>
      <trkpt lat="45.62289" lon="4.58808">
        <ele>836</ele>
        <time>2019-07-29T12:01:13Z</time>
      </trkpt>
      <trkpt lat="45.62334" lon="4.58824">
        <ele>829</ele>
        <time>2019-07-29T12:01:24Z</time>
      </trkpt>
      <trkpt lat="45.62404" lon="4.58762">
        <ele>820</ele>
        <time>2019-07-29T12:01:43Z</time>
      </trkpt>
      <trkpt lat="45.62514" lon="4.58642">
        <ele>804</ele>
        <time>2019-07-29T12:02:15Z</time>
      </trkpt>
      <trkpt lat="45.62557" lon="4.58525">
        <ele>799</ele>
        <time>2019-07-29T12:02:37Z</time>
      </trkpt>
      <trkpt lat="45.62623" lon="4.58413">
        <ele>788</ele>
        <time>2019-07-29T12:03:01Z</time>
      </trkpt>
      <trkpt lat="45.627" lon="4.58316">
        <ele>772</ele>
        <time>2019-07-29T12:03:25Z</time>
      </trkpt>
      <trkpt lat="45.62752" lon="4.5826">
        <ele>757</ele>
        <time>2019-07-29T12:03:40Z</time>
      </trkpt>
      <trkpt lat="45.62827" lon="4.58257">
        <ele>748</ele>
        <time>2019-07-29T12:03:57Z</time>
      </trkpt>
      <trkpt lat="45.62896" lon="4.58272">
        <ele>750</ele>
        <time>2019-07-29T12:04:14Z</time>
      </trkpt>
      <trkpt lat="45.62916" lon="4.58193">
        <ele>751</ele>
        <time>2019-07-29T12:04:27Z</time>
      </trkpt>
      <trkpt lat="45.62898" lon="4.57918">
        <ele>759</ele>
        <time>2019-07-29T12:05:13Z</time>
      </trkpt>
      <trkpt lat="45.62921" lon="4.57782">
        <ele>763</ele>
        <time>2019-07-29T12:05:35Z</time>
      </trkpt>
      <trkpt lat="45.63003" lon="4.57665">
        <ele>763</ele>
        <time>2019-07-29T12:06:02Z</time>
      </trkpt>
      <trkpt lat="45.63098" lon="4.5756">
        <ele>764</ele>
        <time>2019-07-29T12:06:30Z</time>
      </trkpt>
      <trkpt lat="45.63139" lon="4.57568">
        <ele>765</ele>
        <time>2019-07-29T12:06:40Z</time>
      </trkpt>
      <trkpt lat="45.63153" lon="4.57691">
        <ele>773</ele>
        <time>2019-07-29T12:07:00Z</time>
      </trkpt>
      <trkpt lat="45.63258" lon="4.58035">
        <ele>810</ele>
        <time>2019-07-29T12:08:02Z</time>
      </trkpt>
      <trkpt lat="45.63351" lon="4.57979">
        <ele>813</ele>
        <time>2019-07-29T12:08:25Z</time>
      </trkpt>
      <trkpt lat="45.63435" lon="4.5791">
        <ele>812</ele>
        <time>2019-07-29T12:08:48Z</time>
      </trkpt>
      <trkpt lat="45.63515" lon="4.57925">
        <ele>812</ele>
        <time>2019-07-29T12:09:07Z</time>
      </trkpt>
      <trkpt lat="45.63537" lon="4.57994">
        <ele>817</ele>
        <time>2019-07-29T12:09:19Z</time>
      </trkpt>
      <trkpt lat="45.63583" lon="4.57969">
        <ele>815</ele>
        <time>2019-07-29T12:09:31Z</time>
      </trkpt>
      <trkpt lat="45.63615" lon="4.57867">
        <ele>815</ele>
        <time>2019-07-29T12:09:49Z</time>
      </trkpt>
      <trkpt lat="45.63653" lon="4.57785">
        <ele>816</ele>
        <time>2019-07-29T12:10:05Z</time>
      </trkpt>
      <trkpt lat="45.63712" lon="4.57734">
        <ele>825</ele>
        <time>2019-07-29T12:10:21Z</time>
      </trkpt>
      <trkpt lat="45.63726" lon="4.57614">
        <ele>825</ele>
        <time>2019-07-29T12:10:41Z</time>
      </trkpt>
      <trkpt lat="45.63761" lon="4.57538">
        <ele>826</ele>
        <time>2019-07-29T12:10:56Z</time>
      </trkpt>
      <trkpt lat="45.63819" lon="4.57461">
        <ele>821</ele>
        <time>2019-07-29T12:11:14Z</time>
      </trkpt>
      <trkpt lat="45.63892" lon="4.57451">
        <ele>813</ele>
        <time>2019-07-29T12:11:31Z</time>
      </trkpt>
      <trkpt lat="45.63974" lon="4.57461">
        <ele>802</ele>
        <time>2019-07-29T12:11:51Z</time>
      </trkpt>
      <trkpt lat="45.64008" lon="4.57509">
        <ele>803</ele>
        <time>2019-07-29T12:12:02Z</time>
      </trkpt>
      <trkpt lat="45.64086" lon="4.5752">
        <ele>797</ele>
        <time>2019-07-29T12:12:20Z</time>
      </trkpt>
      <trkpt lat="45.6432" lon="4.5742">
        <ele>782</ele>
        <time>2019-07-29T12:13:17Z</time>
      </trkpt>
      <trkpt lat="45.64381" lon="4.57346">
        <ele>791</ele>
        <time>2019-07-29T12:13:36Z</time>
      </trkpt>
      <trkpt lat="45.64457" lon="4.57387">
        <ele>797</ele>
        <time>2019-07-29T12:13:55Z</time>
      </trkpt>
      <trkpt lat="45.64777" lon="4.57155">
        <ele>808</ele>
        <time>2019-07-29T12:15:19Z</time>
      </trkpt>
      <trkpt lat="45.64891" lon="4.56997">
        <ele>804</ele>
        <time>2019-07-29T12:15:56Z</time>
      </trkpt>
      <trkpt lat="45.64975" lon="4.56843">
        <ele>800</ele>
        <time>2019-07-29T12:16:28Z</time>
      </trkpt>
      <trkpt lat="45.65135" lon="4.56662">
        <ele>793</ele>
        <time>2019-07-29T12:17:15Z</time>
      </trkpt>
      <trkpt lat="45.65217" lon="4.56662">
        <ele>786</ele>
        <time>2019-07-29T12:17:34Z</time>
      </trkpt>
      <trkpt lat="45.65347" lon="4.56642">
        <ele>784</ele>
        <time>2019-07-29T12:18:05Z</time>
      </trkpt>
      <trkpt lat="45.6539" lon="4.56683">
        <ele>781</ele>
        <time>2019-07-29T12:18:17Z</time>
      </trkpt>
      <trkpt lat="45.65431" lon="4.56645">
        <ele>779</ele>
        <time>2019-07-29T12:18:28Z</time>
      </trkpt>
      <trkpt lat="45.6546" lon="4.56586">
        <ele>777</ele>
        <time>2019-07-29T12:18:40Z</time>
      </trkpt>
      <trkpt lat="45.65547" lon="4.56494">
        <ele>758</ele>
        <time>2019-07-29T12:19:05Z</time>
      </trkpt>
      <trkpt lat="45.65576" lon="4.56527">
        <ele>755</ele>
        <time>2019-07-29T12:19:14Z</time>
      </trkpt>
      <trkpt lat="45.65619" lon="4.56479">
        <ele>747</ele>
        <time>2019-07-29T12:19:27Z</time>
      </trkpt>
      <trkpt lat="45.6566" lon="4.56433">
        <ele>740</ele>
        <time>2019-07-29T12:19:39Z</time>
      </trkpt>
      <trkpt lat="45.65797" lon="4.56376">
        <ele>726</ele>
        <time>2019-07-29T12:20:12Z</time>
      </trkpt>
      <trkpt lat="45.65745" lon="4.56328">
        <ele>725</ele>
        <time>2019-07-29T12:20:27Z</time>
      </trkpt>
      <trkpt lat="45.65651" lon="4.56172">
        <ele>718</ele>
        <time>2019-07-29T12:21:00Z</time>
      </trkpt>
      <trkpt lat="45.65572" lon="4.56086">
        <ele>721</ele>
        <time>2019-07-29T12:21:23Z</time>
      </trkpt>
      <trkpt lat="45.65597" lon="4.56009">
        <ele>718</ele>
        <time>2019-07-29T12:21:37Z</time>
      </trkpt>
      <trkpt lat="45.65656" lon="4.55909">
        <ele>712</ele>
        <time>2019-07-29T12:21:59Z</time>
      </trkpt>
      <trkpt lat="45.65663" lon="4.55843">
        <ele>710</ele>
        <time>2019-07-29T12:22:10Z</time>
      </trkpt>
      <trkpt lat="45.65629" lon="4.55749">
        <ele>709</ele>
        <time>2019-07-29T12:22:27Z</time>
      </trkpt>
    </trkseg>
  </trk>
</gpx>